createdAt,value
2022-11-09T00:01:32.336Z,36.50
2022-11-09T00:04:01.061Z,35.20
2022-11-09T00:06:29.137Z,48.43
2022-11-09T00:08:55.756Z,42.43
2022-11-09T00:11:22.446Z,40.07
2022-11-09T00:13:49.018Z,39.73
2022-11-09T00:16:17.040Z,40.90
2022-11-09T00:18:47.390Z,43.47
2022-11-09T00:21:19.192Z,42.50
2022-11-09T00:23:45.911Z,34.83
2022-11-09T00:26:14.748Z,40.70
2022-11-09T00:28:41.392Z,44.90
2022-11-09T00:31:11.070Z,37.20
2022-11-09T00:33:37.526Z,43.47
2022-11-09T00:36:09.710Z,37.23
2022-11-09T00:38:36.767Z,38.60
2022-11-09T00:41:04.903Z,42.50
2022-11-09T00:43:31.347Z,40.17
2022-11-09T00:45:57.835Z,37.13
2022-11-09T00:48:24.289Z,36.73
2022-11-09T00:50:55.396Z,38.67
2022-11-09T00:53:23.139Z,40.50
2022-11-09T00:56:02.661Z,42.87
2022-11-09T00:58:31.390Z,43.27
2022-11-09T01:00:59.230Z,34.17
2022-11-09T01:03:26.362Z,37.77
2022-11-09T01:05:53.125Z,38.73
2022-11-09T01:08:19.669Z,40.13
2022-11-09T01:10:48.092Z,39.23
2022-11-09T01:13:16.423Z,43.37
2022-11-09T01:15:44.992Z,39.83
2022-11-09T01:18:11.437Z,39.57
2022-11-09T01:20:42.488Z,44.17
2022-11-09T01:23:09.987Z,43.10
2022-11-09T01:25:36.766Z,39.00
2022-11-09T01:28:03.580Z,42.63
2022-11-09T01:30:33.455Z,42.93
2022-11-09T01:32:59.909Z,33.83
2022-11-09T01:35:26.344Z,39.13
2022-11-09T01:37:52.776Z,40.93
2022-11-09T01:40:19.259Z,38.93
2022-11-09T01:42:45.899Z,39.33
2022-11-09T01:45:18.152Z,35.73
2022-11-09T01:47:48.800Z,45.20
2022-11-09T01:50:19.244Z,39.50
2022-11-09T01:52:48.573Z,41.70
2022-11-09T01:55:20.406Z,40.83
2022-11-09T01:58:09.906Z,40.67
2022-11-09T02:00:38.979Z,41.23
2022-11-09T02:03:09.864Z,46.40
2022-11-09T02:05:37.697Z,45.17
2022-11-09T02:08:05.349Z,46.33
2022-11-09T02:10:44.864Z,43.93
2022-11-09T02:13:13.158Z,46.63
2022-11-09T02:15:44.429Z,44.53
2022-11-09T02:18:12.204Z,41.40
2022-11-09T02:20:50.407Z,40.73
2022-11-09T02:23:17.787Z,41.87
2022-11-09T02:25:51.613Z,46.97
2022-11-09T02:28:18.069Z,42.37
2022-11-09T02:30:46.823Z,43.67
2022-11-09T02:33:13.259Z,44.57
2022-11-09T02:35:39.660Z,40.40
2022-11-09T02:38:08.834Z,44.63
2022-11-09T02:40:37.861Z,44.03
2022-11-09T02:43:05.826Z,42.30
2022-11-09T02:45:32.319Z,41.60
2022-11-09T02:47:59.028Z,43.97
2022-11-09T02:50:26.374Z,47.47
2022-11-09T02:52:52.791Z,39.73
2022-11-09T02:55:19.215Z,49.93
2022-11-09T02:57:45.800Z,49.73
2022-11-09T03:00:12.901Z,44.47
2022-11-09T03:02:39.334Z,46.83
2022-11-09T03:05:06.398Z,48.40
2022-11-09T03:07:32.855Z,44.47
2022-11-09T03:09:59.365Z,44.17
2022-11-09T03:12:31.584Z,44.47
2022-11-09T03:15:03.937Z,49.00
2022-11-09T03:17:31.810Z,48.63
2022-11-09T03:19:58.248Z,45.47
2022-11-09T03:22:24.659Z,51.40
2022-11-09T03:24:51.158Z,47.13
2022-11-09T03:27:17.869Z,43.00
2022-11-09T03:29:44.428Z,43.23
2022-11-09T03:32:10.868Z,49.40
2022-11-09T03:34:37.298Z,46.00
2022-11-09T03:37:04.158Z,45.57
2022-11-09T03:39:30.639Z,47.07
2022-11-09T03:41:57.074Z,48.13
2022-11-09T03:44:23.563Z,50.50
2022-11-09T03:46:49.984Z,51.90
2022-11-09T03:49:16.457Z,49.20
2022-11-09T03:51:42.859Z,49.27
2022-11-09T03:54:09.371Z,50.37
2022-11-09T03:56:35.846Z,45.63
2022-11-09T03:59:02.282Z,46.93
2022-11-09T04:01:29.244Z,45.87
2022-11-09T04:03:55.728Z,47.97
2022-11-09T04:06:22.322Z,48.53
2022-11-09T04:08:51.505Z,54.13
2022-11-09T04:11:18.189Z,43.93
2022-11-09T04:13:44.741Z,51.23
2022-11-09T04:16:11.227Z,51.23
2022-11-09T04:18:37.861Z,59.57
2022-11-09T04:21:04.386Z,51.03
2022-11-09T04:23:30.895Z,48.90
2022-11-09T04:25:59.561Z,49.33
2022-11-09T04:28:26.488Z,56.50
2022-11-09T04:30:52.961Z,47.00
2022-11-09T04:33:19.927Z,51.80
2022-11-09T04:35:46.738Z,54.23
2022-11-09T04:38:14.099Z,48.57
2022-11-09T04:40:40.803Z,50.57
2022-11-09T04:43:09.518Z,56.47
2022-11-09T04:45:36.014Z,55.00
2022-11-09T04:48:05.554Z,53.93
2022-11-09T04:50:32.744Z,52.40
2022-11-09T04:53:13.408Z,52.63
2022-11-09T04:55:40.484Z,51.50
2022-11-09T04:58:07.288Z,57.13
2022-11-09T05:00:34.275Z,52.70
2022-11-09T05:03:05.053Z,51.97
2022-11-09T05:05:33.813Z,55.00
2022-11-09T05:08:00.230Z,55.17
2022-11-09T05:10:26.800Z,56.00
2022-11-09T05:13:04.445Z,49.87
2022-11-09T05:15:31.382Z,56.23
2022-11-09T05:17:58.135Z,54.80
2022-11-09T05:20:24.892Z,58.97
2022-11-09T05:23:10.040Z,57.47
2022-11-09T05:25:36.464Z,54.40
2022-11-09T05:28:03.085Z,52.97
2022-11-09T05:30:29.587Z,53.33
2022-11-09T05:32:55.997Z,53.40
2022-11-09T05:35:22.577Z,55.90
2022-11-09T05:37:49.807Z,59.40
2022-11-09T05:40:17.765Z,59.83
2022-11-09T05:42:44.679Z,63.07
2022-11-09T05:45:40.712Z,55.57
2022-11-09T05:48:03.544Z,55.73
2022-11-09T05:50:29.968Z,60.30
2022-11-09T05:52:59.143Z,59.40
2022-11-09T05:55:25.712Z,57.77
2022-11-09T05:57:52.204Z,61.83
2022-11-09T06:00:18.941Z,56.27
2022-11-09T06:02:45.548Z,63.13
2022-11-09T06:05:12.215Z,60.73
2022-11-09T06:07:38.767Z,68.47
2022-11-09T06:10:05.895Z,60.97
2022-11-09T06:12:32.362Z,59.37
2022-11-09T06:14:59.462Z,64.20
2022-11-09T06:17:26.243Z,54.63
2022-11-09T06:19:52.894Z,55.33
2022-11-09T06:22:19.560Z,59.70
2022-11-09T06:24:46.105Z,57.43
2022-11-09T06:27:12.656Z,54.83
2022-11-09T06:29:39.112Z,57.30
2022-11-09T06:32:05.759Z,55.03
2022-11-09T06:34:32.219Z,62.63
2022-11-09T06:36:59.036Z,52.63
2022-11-09T06:39:25.498Z,57.07
2022-11-09T06:41:51.928Z,55.60
2022-11-09T06:44:18.353Z,52.53
2022-11-09T06:46:44.766Z,55.40
2022-11-09T06:50:40.368Z,58.07
2022-11-09T06:53:09.626Z,61.43
2022-11-09T06:55:36.752Z,57.90
2022-11-09T06:58:11.488Z,66.77
2022-11-09T07:00:38.391Z,61.33
2022-11-09T07:03:04.815Z,56.13
2022-11-09T07:05:31.441Z,56.90
2022-11-09T07:07:58.243Z,60.63
2022-11-09T07:10:25.228Z,58.13
2022-11-09T07:12:51.803Z,60.97
2022-11-09T07:15:18.757Z,56.17
2022-11-09T07:17:45.256Z,54.37
2022-11-09T07:20:12.167Z,55.93
2022-11-09T07:22:39.892Z,56.87
2022-11-09T07:25:07.848Z,57.77
2022-11-09T07:27:34.380Z,61.73
2022-11-09T07:30:01.003Z,54.37
2022-11-09T07:33:02.043Z,59.30
2022-11-09T07:35:14.403Z,52.07
2022-11-09T07:37:40.822Z,59.43
2022-11-09T07:40:08.201Z,57.60
2022-11-09T07:42:34.762Z,57.43
2022-11-09T07:45:01.265Z,56.67
2022-11-09T07:47:27.914Z,56.20
2022-11-09T07:49:54.412Z,55.30
2022-11-09T07:52:20.854Z,59.10
2022-11-09T07:54:51.938Z,57.03
2022-11-09T07:57:18.842Z,56.40
2022-11-09T07:59:45.355Z,53.93
2022-11-09T08:02:12.848Z,55.60
2022-11-09T08:04:39.695Z,53.63
2022-11-09T08:07:06.293Z,64.63
2022-11-09T08:09:32.967Z,55.30
2022-11-09T08:12:02.168Z,53.00
2022-11-09T08:14:29.498Z,51.77
2022-11-09T08:16:56.745Z,48.53
2022-11-09T08:19:23.353Z,47.43
2022-11-09T08:21:50.140Z,44.90
2022-11-09T08:24:16.696Z,51.80
2022-11-09T08:26:43.408Z,48.30
2022-11-09T08:29:09.978Z,48.20
2022-11-09T08:31:36.906Z,46.33
2022-11-09T08:34:03.733Z,42.23
2022-11-09T08:36:31.429Z,45.77
2022-11-09T08:38:59.311Z,38.40
2022-11-09T08:41:25.930Z,43.77
2022-11-09T08:43:52.617Z,39.97
2022-11-09T08:46:19.356Z,42.23
2022-11-09T08:48:46.937Z,43.53
2022-11-09T08:51:13.564Z,43.33
2022-11-09T08:53:40.319Z,46.90
2022-11-09T08:56:08.264Z,42.57
2022-11-09T08:58:35.211Z,43.93
2022-11-09T09:01:01.963Z,42.37
2022-11-09T09:03:29.476Z,50.13
2022-11-09T09:05:56.118Z,45.83
2022-11-09T09:08:23.837Z,41.67
2022-11-09T09:10:50.715Z,39.20
2022-11-09T09:13:19.337Z,42.33
2022-11-09T09:15:48.478Z,40.50
2022-11-09T09:18:15.167Z,47.23
2022-11-09T09:20:41.699Z,44.57
2022-11-09T09:23:08.244Z,40.80
2022-11-09T09:25:34.985Z,48.33
2022-11-09T09:28:01.620Z,44.97
2022-11-09T09:30:29.370Z,39.80
2022-11-09T09:33:02.019Z,41.30
2022-11-09T09:35:29.817Z,44.20
2022-11-09T09:37:58.724Z,46.90
2022-11-09T09:40:35.355Z,47.23
2022-11-09T09:43:02.068Z,45.53
2022-11-09T09:45:32.832Z,39.70
2022-11-09T09:48:05.428Z,45.87
2022-11-09T09:50:38.221Z,44.13
2022-11-09T09:53:24.147Z,46.33
2022-11-09T09:55:56.307Z,44.03
2022-11-09T09:58:31.753Z,47.40
2022-11-09T10:01:15.480Z,50.27
2022-11-09T10:03:42.280Z,47.67
2022-11-09T10:06:15.063Z,47.57
2022-11-09T10:08:57.085Z,47.30
2022-11-09T10:11:46.393Z,51.63
2022-11-09T10:14:29.783Z,44.70
2022-11-09T10:17:14.800Z,43.27
2022-11-09T10:19:58.454Z,43.77
2022-11-09T10:22:49.901Z,45.27
2022-11-09T10:25:43.318Z,48.93
2022-11-09T10:28:15.363Z,42.63
2022-11-09T10:30:42.322Z,47.50
2022-11-09T10:33:11.395Z,44.73
2022-11-09T10:36:03.844Z,45.40
2022-11-09T10:38:38.736Z,43.77
2022-11-09T10:41:32.722Z,46.63
2022-11-09T10:43:59.777Z,46.83
2022-11-09T10:46:26.259Z,48.33
2022-11-09T10:48:54.288Z,43.70
2022-11-09T10:51:35.868Z,48.50
2022-11-09T10:54:28.335Z,38.93
2022-11-09T10:57:06.636Z,46.70
2022-11-09T10:59:39.952Z,45.03
2022-11-09T11:02:24.432Z,43.00
2022-11-09T11:05:16.586Z,40.33
2022-11-09T11:07:43.477Z,45.93
2022-11-09T11:10:15.832Z,42.37
2022-11-09T11:12:51.596Z,45.50
2022-11-09T11:15:32.569Z,47.43
2022-11-09T11:18:04.996Z,44.37
2022-11-09T11:20:35.935Z,43.97
2022-11-09T11:23:13.272Z,48.27
2022-11-09T11:25:59.264Z,45.73
2022-11-09T11:28:47.890Z,43.90
2022-11-09T11:31:16.385Z,43.57
2022-11-09T11:33:42.934Z,50.27
2022-11-09T11:36:20.837Z,44.07
2022-11-09T11:38:57.713Z,41.27
2022-11-09T11:41:24.366Z,41.07
2022-11-09T11:43:56.850Z,47.37
2022-11-09T11:46:37.424Z,42.50
2022-11-09T11:49:33.378Z,38.20
2022-11-09T11:52:10.741Z,41.77
2022-11-09T11:55:13.962Z,41.27
2022-11-09T11:57:49.116Z,47.40
2022-11-09T12:00:18.292Z,43.53
2022-11-09T12:03:05.956Z,40.13
2022-11-09T12:05:57.453Z,40.57
2022-11-09T12:08:29.367Z,42.23
2022-11-09T12:10:58.328Z,40.37
2022-11-09T12:13:49.671Z,41.17
2022-11-09T12:16:29.371Z,39.60
2022-11-09T12:19:14.369Z,42.07
2022-11-09T12:21:52.701Z,40.87
2022-11-09T12:24:35.628Z,36.27
2022-11-09T12:27:31.129Z,39.80
2022-11-09T12:30:06.391Z,42.40
2022-11-09T12:32:59.425Z,42.27
2022-11-09T12:35:42.290Z,36.13
2022-11-09T12:38:17.238Z,39.43
2022-11-09T12:40:59.035Z,44.27
2022-11-09T12:43:29.678Z,47.30
2022-11-09T12:45:57.581Z,39.13
2022-11-09T12:48:35.376Z,43.43
2022-11-09T12:51:04.015Z,42.40
2022-11-09T12:53:34.300Z,41.03
2022-11-09T12:56:10.107Z,43.07
2022-11-09T12:58:37.970Z,39.73
2022-11-09T13:01:06.571Z,37.43
2022-11-09T13:03:35.625Z,39.23
2022-11-09T13:06:27.884Z,36.63
2022-11-09T13:09:13.456Z,34.93
2022-11-09T13:11:42.456Z,44.03
2022-11-09T13:14:27.039Z,41.47
2022-11-09T13:17:01.957Z,43.77
2022-11-09T13:19:34.619Z,44.90
2022-11-09T13:22:16.089Z,43.93
2022-11-09T13:25:00.164Z,40.73
2022-11-09T13:27:32.622Z,44.57
2022-11-09T13:30:00.721Z,40.27
2022-11-09T13:32:29.506Z,43.87
2022-11-09T13:35:00.641Z,42.60
2022-11-09T13:37:36.081Z,50.60
2022-11-09T13:40:31.235Z,40.93
2022-11-09T13:43:16.447Z,42.20
2022-11-09T13:45:56.519Z,42.60
2022-11-09T13:48:39.531Z,38.00
2022-11-09T13:51:09.052Z,42.73
2022-11-09T13:53:38.626Z,47.67
2022-11-09T13:56:33.683Z,42.87
2022-11-09T13:59:09.980Z,42.37
2022-11-09T14:01:48.530Z,49.13
2022-11-09T14:04:25.947Z,43.83
2022-11-09T14:07:12.699Z,39.80
2022-11-09T14:09:58.544Z,43.87
2022-11-09T14:12:42.057Z,43.00
2022-11-09T14:15:30.863Z,42.60
2022-11-09T14:18:13.643Z,38.13
2022-11-09T14:20:58.542Z,45.73
2022-11-09T14:23:32.285Z,41.93
2022-11-09T14:26:06.886Z,44.67
2022-11-09T14:28:34.848Z,54.50
2022-11-09T14:31:02.176Z,40.33
2022-11-09T14:33:34.852Z,42.17
2022-11-09T14:36:02.970Z,44.67
2022-11-09T14:38:35.934Z,42.83
2022-11-09T14:41:03.454Z,41.40
2022-11-09T14:43:47.635Z,44.67
2022-11-09T14:46:20.864Z,47.07
2022-11-09T14:49:00.662Z,51.10
2022-11-09T14:51:38.696Z,47.13
2022-11-09T14:54:12.752Z,52.67
2022-11-09T14:56:40.106Z,45.50
2022-11-09T14:59:14.709Z,48.20
2022-11-09T15:01:41.538Z,46.20
2022-11-09T15:04:11.401Z,50.87
2022-11-09T15:06:46.624Z,46.57
2022-11-09T15:09:19.569Z,47.30
2022-11-09T15:11:46.537Z,47.23
2022-11-09T15:14:35.002Z,43.60
2022-11-09T15:17:15.480Z,47.37
2022-11-09T15:19:50.287Z,46.40
2022-11-09T15:22:49.547Z,52.57
2022-11-09T15:25:34.536Z,43.80
2022-11-09T15:28:12.792Z,50.73
2022-11-09T15:30:45.664Z,46.80
2022-11-09T15:33:21.342Z,45.87
2022-11-09T15:35:53.115Z,46.00
2022-11-09T15:38:39.390Z,48.40
2022-11-09T15:41:18.681Z,47.50
2022-11-09T15:43:45.613Z,44.63
2022-11-09T15:46:24.752Z,50.80
2022-11-09T15:48:51.842Z,49.27
2022-11-09T15:51:18.464Z,44.43
2022-11-09T15:53:45.126Z,48.80
2022-11-09T15:56:20.447Z,50.50
2022-11-09T15:58:49.100Z,53.43
2022-11-09T16:01:16.225Z,48.13
2022-11-09T16:03:42.817Z,53.00
2022-11-09T16:06:22.365Z,48.10
2022-11-09T16:08:50.029Z,47.57
2022-11-09T16:11:16.743Z,50.67
2022-11-09T16:13:43.414Z,51.27
2022-11-09T16:16:12.358Z,48.90
2022-11-09T16:18:38.939Z,47.57
2022-11-09T16:21:23.935Z,49.43
2022-11-09T16:23:55.655Z,50.07
2022-11-09T16:26:24.698Z,51.67
2022-11-09T16:28:51.340Z,54.73
2022-11-09T16:31:25.249Z,52.13
2022-11-09T16:34:01.643Z,54.87
2022-11-09T16:36:29.546Z,48.83
2022-11-09T16:38:56.794Z,62.60
2022-11-09T16:41:23.821Z,56.93
2022-11-09T16:43:55.531Z,55.10
2022-11-09T16:46:24.257Z,49.00
2022-11-09T16:48:50.988Z,54.87
2022-11-09T16:51:17.485Z,57.90
2022-11-09T16:53:44.347Z,59.90
2022-11-09T16:56:11.000Z,59.23
2022-11-09T16:58:37.507Z,53.90
2022-11-09T17:01:11.618Z,64.57
2022-11-09T17:03:39.098Z,56.03
2022-11-09T17:06:07.383Z,56.00
2022-11-09T17:08:33.839Z,54.10
2022-11-09T17:11:00.396Z,55.40
2022-11-09T17:13:26.941Z,51.70
2022-11-09T17:15:53.524Z,57.37
2022-11-09T17:18:20.437Z,63.33
2022-11-09T17:20:49.264Z,54.37
2022-11-09T17:23:18.805Z,55.20
2022-11-09T17:25:59.658Z,56.30
2022-11-09T17:28:26.750Z,56.27
2022-11-09T17:30:53.966Z,55.90
2022-11-09T17:33:20.744Z,55.67
2022-11-09T17:35:47.570Z,61.87
2022-11-09T17:38:14.118Z,55.97
2022-11-09T17:40:40.553Z,54.10
2022-11-09T17:43:07.122Z,57.47
2022-11-09T17:45:35.351Z,57.63
2022-11-09T17:48:01.816Z,67.57
2022-11-09T17:50:28.891Z,57.37
2022-11-09T17:52:55.319Z,53.10
2022-11-09T17:55:21.822Z,59.73
2022-11-09T17:57:48.648Z,60.93
2022-11-09T18:00:15.491Z,61.70
2022-11-09T18:02:42.393Z,54.87
2022-11-09T18:05:10.904Z,56.60
2022-11-09T18:07:37.376Z,57.63
2022-11-09T18:10:04.220Z,54.37
2022-11-09T18:12:30.725Z,57.10
2022-11-09T18:14:57.231Z,55.57
2022-11-09T18:17:23.778Z,55.60
2022-11-09T18:19:50.230Z,56.60
2022-11-09T18:22:16.729Z,61.07
2022-11-09T18:24:43.200Z,65.97
2022-11-09T18:27:09.681Z,59.07
2022-11-09T18:29:36.096Z,55.50
2022-11-09T18:32:02.525Z,58.53
2022-11-09T18:34:29.221Z,62.03
2022-11-09T18:36:55.710Z,56.77
2022-11-09T18:39:22.195Z,63.73
2022-11-09T18:41:48.750Z,60.87
2022-11-09T18:44:15.287Z,56.63
2022-11-09T18:46:41.771Z,58.63
2022-11-09T18:49:13.907Z,63.77
2022-11-09T18:51:40.846Z,61.27
2022-11-09T18:54:07.321Z,65.27
2022-11-09T18:56:34.072Z,60.87
2022-11-09T18:59:00.904Z,54.80
2022-11-09T19:01:27.611Z,60.57
2022-11-09T19:03:59.003Z,66.03
2022-11-09T19:06:26.551Z,59.40
2022-11-09T19:09:11.885Z,59.50
2022-11-09T19:11:38.449Z,68.00
2022-11-09T19:14:04.924Z,61.70
2022-11-09T19:16:31.419Z,59.90
2022-11-09T19:18:58.213Z,60.00
2022-11-09T19:21:24.703Z,59.43
2022-11-09T19:23:51.693Z,61.87
2022-11-09T19:26:18.390Z,59.43
2022-11-09T19:28:44.922Z,61.57
2022-11-09T19:31:13.569Z,60.77
2022-11-09T19:33:40.135Z,68.43
2022-11-09T19:36:29.095Z,67.37
2022-11-09T19:38:53.622Z,56.97
2022-11-09T19:41:20.384Z,64.47
2022-11-09T19:43:50.886Z,59.27
2022-11-09T19:46:17.774Z,54.97
2022-11-09T19:48:45.736Z,55.37
2022-11-09T19:51:13.005Z,62.73
2022-11-09T19:53:42.375Z,62.80
2022-11-09T19:56:09.636Z,60.90
2022-11-09T19:58:36.303Z,56.50
2022-11-09T20:01:04.586Z,55.67
2022-11-09T20:03:31.178Z,63.90
2022-11-09T20:05:57.939Z,61.53
2022-11-09T20:08:25.247Z,59.33
2022-11-09T20:10:52.447Z,60.03
2022-11-09T20:13:20.100Z,62.57
2022-11-09T20:15:46.726Z,65.33
2022-11-09T20:18:13.427Z,66.80
2022-11-09T20:20:40.007Z,59.93
2022-11-09T20:23:06.610Z,58.83
2022-11-09T20:25:33.156Z,63.50
2022-11-09T20:27:59.956Z,63.87
2022-11-09T20:30:26.572Z,71.30
2022-11-09T20:32:53.158Z,64.83
2022-11-09T20:35:19.884Z,59.87
2022-11-09T20:37:46.488Z,61.80
2022-11-09T20:40:13.254Z,69.97
2022-11-09T20:42:39.709Z,65.90
2022-11-09T20:45:06.444Z,68.00
2022-11-09T20:48:02.856Z,66.67
2022-11-09T20:50:20.214Z,63.17
2022-11-09T20:52:46.701Z,69.23
2022-11-09T20:55:13.763Z,69.40
2022-11-09T20:57:40.297Z,69.00
2022-11-09T21:00:07.748Z,68.53
2022-11-09T21:02:34.253Z,69.57
2022-11-09T21:05:01.242Z,70.20
2022-11-09T21:07:27.735Z,68.17
2022-11-09T21:09:54.245Z,71.70
2022-11-09T21:12:24.976Z,68.80
2022-11-09T21:14:52.971Z,69.33
2022-11-09T21:17:20.109Z,69.30
2022-11-09T21:19:46.851Z,65.87
2022-11-09T21:22:13.747Z,67.70
2022-11-09T21:24:58.932Z,63.10
2022-11-09T21:27:47.859Z,63.37
2022-11-09T21:30:15.107Z,61.63
2022-11-09T21:32:41.680Z,65.63
2022-11-09T21:35:08.621Z,68.17
2022-11-09T21:37:35.137Z,73.33
2022-11-09T21:40:01.671Z,68.27
2022-11-09T21:42:30.863Z,64.43
2022-11-09T21:44:57.495Z,70.23
2022-11-09T21:47:24.455Z,75.10
2022-11-09T21:49:50.963Z,74.07
2022-11-09T21:52:17.463Z,65.37
2022-11-09T21:54:43.934Z,67.77
2022-11-09T21:57:10.445Z,70.27
2022-11-09T21:59:36.991Z,71.37
2022-11-09T22:02:03.687Z,68.70
2022-11-09T22:04:30.099Z,68.13
2022-11-09T22:06:56.647Z,67.37
2022-11-09T22:09:23.311Z,72.13
2022-11-09T22:12:08.852Z,68.40
2022-11-09T22:14:54.220Z,79.63
2022-11-09T22:17:20.993Z,72.23
2022-11-09T22:20:06.270Z,74.63
2022-11-09T22:22:34.027Z,72.47
2022-11-09T22:25:00.471Z,71.23
2022-11-09T22:27:27.553Z,70.97
2022-11-09T22:29:54.030Z,76.43
2022-11-09T22:32:20.673Z,71.67
2022-11-09T22:34:47.220Z,69.00
2022-11-09T22:37:13.831Z,71.83
2022-11-09T22:39:45.862Z,74.33
2022-11-09T22:42:13.632Z,78.77
2022-11-09T22:44:40.091Z,71.33
2022-11-09T22:47:06.556Z,66.20
2022-11-09T22:49:34.199Z,67.27
2022-11-09T22:52:00.626Z,71.80
2022-11-09T22:54:27.919Z,74.20
2022-11-09T22:56:54.389Z,71.93
2022-11-09T22:59:20.862Z,74.87
2022-11-09T23:01:48.187Z,71.73
2022-11-09T23:04:14.666Z,70.07
2022-11-09T23:06:41.169Z,68.53
2022-11-09T23:09:07.968Z,69.37
2022-11-09T23:11:34.414Z,76.07
2022-11-09T23:14:00.918Z,75.20
2022-11-09T23:16:27.572Z,68.40
2022-11-09T23:18:54.757Z,67.50
2022-11-09T23:21:26.912Z,70.57
2022-11-09T23:23:55.267Z,65.60
2022-11-09T23:26:22.632Z,72.50
2022-11-09T23:28:49.366Z,72.63
2022-11-09T23:31:19.356Z,68.33
2022-11-09T23:33:48.129Z,75.27
2022-11-09T23:36:14.760Z,70.73
2022-11-09T23:38:41.320Z,67.80
2022-11-09T23:41:09.471Z,75.87
2022-11-09T23:43:36.663Z,69.43
2022-11-09T23:46:06.447Z,75.17
2022-11-09T23:48:33.141Z,69.67
2022-11-09T23:51:00.543Z,71.83
2022-11-09T23:53:29.025Z,66.57
2022-11-09T23:56:03.412Z,71.43
2022-11-09T23:58:30.376Z,66.97
